Portada
METAR-TAF:

METAR-TAF

Aeroports :

Karachi, Pakistan

latitud: 24-54N, longitud: 067-08E, altitud: 21 m

Observació

L'informe es va fer fa 14 minuts, a les 09:30 UTC
Vent 15 kt del Oest
Temperatura 33°C
Humitat 56%
Pressió 1005 hPa
Visibilitat: 6000 m
Cel ennuvolat a una alçada de 2000 ft

METAR: OPKC 150930Z 26015KT 6000 BKN020 33/23 Q1005 TEMPO 28015G25KT

Hora: 14:44 (09:44 UTC)

Pronòstic

L'informe es va fer fa 6 hores i 14 minuts, a les 03:30 UTC
Pronòstic vàlid del 15 a les 06 UTC al 16 a les 12 UTC
Vent 12 kt del Oest/Sud-Oest amb ràfegues de 22 kt
Visibilitat: 6000 m
Núvols disperses a una alçada de 2500 ft
Temporalment
l' 16 a les 00 UTC al 16 a les 04 UTC
Vent 10 kt del Oest
Visibilitat: 5000 m
Cel ennuvolat a una alçada de 2000 ft
fum

TAF: OPKC 150330Z 1506/1612 25012G22KT 6000 SCT025 TEMPO 1600/1604 27010KT 5000 FU BKN020

Observacions i pronòstics meteorològics de més de 4000 aeroports (METAR i TAF).

Les estacions disponibles són els punts grocs i vermells al mapa.

Posi el ratolí al punt desitjat per veure el nom de l'estació.

Feu clic per veure les observacions i els pronòstics meteorològics.

Per canviar el mapa: feu clic els botons verds amb una creu de color negre per apropar; al botó verd amb un guió per allunyar la imatge; o en les fletxes verdes per a mapes adjacents.


METAR-TAF: